Cheyenne, WY (82002)

4:17 AM MDT on September 17, 2014 (GMT -0600)
Cheyenne | Change Station
CLOSE
Current Station
Personal Weather Station
Location: Cheyenne, WY
Elevation: 6138 ft
Nearby Weather Stations

Elev 6138 ft 41.15 °N, 104.82 °W | Updated 1 minute ago

Clear
Clear
55.1 °F
Feels Like 55.1 °F
N
6.0
Wind Variable Wind from WNW
Gusts 7.0 mph

Today
High -- | Low -- °F
--% Chance of Precip.
Yesterday
High -- | Low -- °F
Precip. -- in
6:41 AM 7:04 PM
Last Quarter, 37% visible
Pressure 29.88 in
Visibility 10.0 miles
Clouds Clear
Dew Point 35 °F
Humidity 46%
Rainfall 0.00 in
Snow Depth 0 in , 0 in , 0 in
UV 0 out of 12
Pollen 7.30 out of 12
Air Quality Not available.
Flu Activity Not available.
METAR KCYS 170953Z AUTO 29008KT 10SM CLR 13/02 A3012 RMK AO2 SLP116 T01280017 $

More Conditions Fewer Conditions

Pressure 29.88 in
Visibility 10.0 miles
Clouds Clear
Dew Point 35 °F
Humidity 46%
Rainfall 0.00 in
Snow Depth 0 in , 0 in , 0 in
UV 0 out of 12
Pollen 7.30 out of 12
Air Quality Not available.
Flu Activity Not available.
METAR KCYS 170953Z AUTO 29008KT 10SM CLR 13/02 A3012 RMK AO2 SLP116 T01280017 $

More Conditions Fewer Conditions

10-Day Weather Forecast

Almanac

Astronomy

Sep. 17, 2014 Rise Set
Actual Time 6:41 AM MDT 7:04 PM MDT
Civil Twilight 6:14 AM MDT 7:32 PM MDT
Nautical Twilight 5:41 AM MDT 8:04 PM MDT
Astronomical Twilight 5:08 AM MDT 8:38 PM MDT
Moon 12:41 AM MDT 3:18 PM MDT
Length of Visible Light 13h 18m
Length of Day
12h 23m
Tomorrow will be 2m 43s shorter.
Last Quarter, 37% of the Moon is Illuminated
Today
Last Quarter
Sep 24
New
Oct 1
First Quarter
Oct 8
Full
Oct 15
Last Quarter

Today's Extremes

State Highs State Lows

Community

WunderPhotos

Upload Photos

1,753,991 photos uploaded!

Nearby

Snow Depth

Station Depth Elevation
Hams Fork 0 in 7840 ft
Brooklyn Lake 0 in 10220 ft
North French Creek 0 in 10130 ft
Kendall R.S. 1 in 7740 ft
Willow Creek 0 in 8450 ft

Earthquake Activity

City Distance Mag. Time & Date
No recent earthquake activity has been reported nearby.
Minimum magnitude displayed is 2.5.

Coastal Water Temperatures

Place Temperature
No Stations Reporting

Nearby Weather Stations